Time;durP1;ratioP1;P1;durP2;ratioP2;P2;SDS_P1;SDS_P2;PMS_P1;PMS_P2;Temp;Humidity;BMP_temperature;BMP_pressure;BME280_temperature;BME280_humidity;BME280_pressure;Samples;Min_cycle;Max_cycle;Signal;HPM_P1;HPM_P2
2021/08/05 00:02:16;;;;;;;1.20;1.20;;;;;;;;;;4993475;28;20207;-86
2021/08/05 00:04:44;;;;;;;1.00;1.00;;;;;;;;;;4994342;28;20223;-86
2021/08/05 00:07:14;;;;;;;0.98;0.98;;;;;;;;;;4994349;28;20234;-86
2021/08/05 00:09:43;;;;;;;0.77;0.77;;;;;;;;;;4994163;28;20180;-86
2021/08/05 00:12:11;;;;;;;0.93;0.93;;;;;;;;;;5000924;28;20211;-87
2021/08/05 00:14:39;;;;;;;6.57;1.73;;;;;;;;;;5013297;28;20183;-86
2021/08/05 00:17:07;;;;;;;0.90;0.90;;;;;;;;;;5013397;28;20219;-86
2021/08/05 00:19:35;;;;;;;1.20;1.10;;;;;;;;;;5012649;28;20203;-86
2021/08/05 00:22:02;;;;;;;0.80;0.80;;;;;;;;;;5012573;28;20195;-87
2021/08/05 00:24:32;;;;;;;0.77;0.77;;;;;;;;;;5013603;28;20194;-86
2021/08/05 00:27:00;;;;;;;0.90;0.90;;;;;;;;;;5006022;28;20257;-86
2021/08/05 00:29:28;;;;;;;0.80;0.80;;;;;;;;;;4999123;28;20203;-85
2021/08/05 00:31:56;;;;;;;0.80;0.80;;;;;;;;;;4981529;28;20214;-85
2021/08/05 00:34:23;;;;;;;0.85;0.85;;;;;;;;;;4993795;28;20226;-86
2021/08/05 00:36:50;;;;;;;1.00;1.00;;;;;;;;;;4993356;28;20604;-86
2021/08/05 00:39:18;;;;;;;1.00;1.00;;;;;;;;;;4993459;28;20188;-85
2021/08/05 00:41:47;;;;;;;1.20;1.20;;;;;;;;;;4993679;28;20199;-84
2021/08/05 00:44:14;;;;;;;1.42;1.33;;;;;;;;;;4993272;28;20555;-85
2021/08/05 00:46:42;;;;;;;1.50;1.40;;;;;;;;;;4993592;28;20227;-85
2021/08/05 00:49:09;;;;;;;1.17;1.17;;;;;;;;;;4993401;28;20191;-86
2021/08/05 00:51:37;;;;;;;1.40;1.30;;;;;;;;;;4992839;28;20208;-86
2021/08/05 00:54:05;;;;;;;0.88;0.88;;;;;;;;;;4993553;28;20557;-85
2021/08/05 00:56:32;;;;;;;1.20;1.20;;;;;;;;;;4993441;28;20216;-86
2021/08/05 00:59:01;;;;;;;2.42;1.65;;;;;;;;;;4993174;28;20206;-86
2021/08/05 01:01:35;;;;;;;1.65;1.55;;;;;;;;;;4993240;28;20184;-86
2021/08/05 01:04:03;;;;;;;1.27;1.17;;;;;;;;;;4993015;28;20287;-86
2021/08/05 01:06:41;;;;;;;1.25;1.25;;;;;;;;;;4993059;28;20226;-86
2021/08/05 01:09:14;;;;;;;1.45;1.35;;;;;;;;;;4993167;28;20200;-86
2021/08/05 01:11:47;;;;;;;1.13;1.13;;;;;;;;;;4992812;28;20214;-86
2021/08/05 01:14:18;;;;;;;1.20;1.20;;;;;;;;;;4993209;28;20188;-86
2021/08/05 01:16:48;;;;;;;1.60;1.50;;;;;;;;;;4992981;28;20220;-86
2021/08/05 01:19:27;;;;;;;1.70;1.60;;;;;;;;;;4993112;28;20199;-86
2021/08/05 01:22:01;;;;;;;2.10;1.92;;;;;;;;;;4993064;28;20188;-86
2021/08/05 01:24:32;;;;;;;1.20;1.20;;;;;;;;;;4982884;28;20242;-86
2021/08/05 01:27:05;;;;;;;2.00;1.90;;;;;;;;;;4968766;28;20284;-85
2021/08/05 01:29:35;;;;;;;1.40;1.30;;;;;;;;;;4954050;29;20215;-84
2021/08/05 01:32:06;;;;;;;1.50;1.40;;;;;;;;;;4958181;28;20228;-85
2021/08/05 01:34:34;;;;;;;1.45;1.38;;;;;;;;;;4973428;28;20279;-85
2021/08/05 01:37:02;;;;;;;1.35;1.25;;;;;;;;;;4973054;28;20231;-85
2021/08/05 01:39:31;;;;;;;1.00;1.00;;;;;;;;;;4973564;28;20624;-85
2021/08/05 01:41:58;;;;;;;1.50;1.40;;;;;;;;;;4973381;28;20192;-86
2021/08/05 01:44:29;;;;;;;1.25;1.25;;;;;;;;;;4973578;28;20185;-85
2021/08/05 01:46:58;;;;;;;1.50;1.40;;;;;;;;;;4972164;28;20220;-86
2021/08/05 01:49:26;;;;;;;1.88;1.70;;;;;;;;;;4973568;28;20211;-86
2021/08/05 01:51:55;;;;;;;1.20;1.20;;;;;;;;;;4973285;28;20590;-86
2021/08/05 01:54:23;;;;;;;1.90;1.80;;;;;;;;;;4973516;28;20192;-86
2021/08/05 01:56:53;;;;;;;1.13;1.13;;;;;;;;;;4976619;28;20587;-85
2021/08/05 01:59:20;;;;;;;1.77;1.55;;;;;;;;;;4977587;28;20195;-86
2021/08/05 02:01:49;;;;;;;1.90;1.80;;;;;;;;;;4977380;28;20211;-86
2021/08/05 02:04:34;;;;;;;3.03;1.83;;;;;;;;;;4977270;28;20599;-86
2021/08/05 02:07:08;;;;;;;1.70;1.60;;;;;;;;;;4976811;28;20371;-86
2021/08/05 02:09:43;;;;;;;1.80;1.70;;;;;;;;;;4976528;28;20184;-86
2021/08/05 02:12:10;;;;;;;1.88;1.67;;;;;;;;;;4977325;28;20204;-85
2021/08/05 02:14:41;;;;;;;1.60;1.50;;;;;;;;;;4977411;28;20188;-86
2021/08/05 02:17:10;;;;;;;1.73;1.63;;;;;;;;;;4976635;28;20212;-85
2021/08/05 02:19:38;;;;;;;2.03;1.92;;;;;;;;;;4977261;28;20189;-86
2021/08/05 02:22:08;;;;;;;1.95;1.85;;;;;;;;;;4977051;28;20208;-85
2021/08/05 02:24:37;;;;;;;1.48;1.38;;;;;;;;;;4977191;28;20185;-85
2021/08/05 02:27:05;;;;;;;1.67;1.58;;;;;;;;;;4977164;28;20263;-86
2021/08/05 02:29:33;;;;;;;2.15;1.95;;;;;;;;;;4976654;28;20209;-85
2021/08/05 02:32:01;;;;;;;2.13;2.03;;;;;;;;;;4976895;28;20228;-86
2021/08/05 02:34:32;;;;;;;2.30;1.80;;;;;;;;;;4976672;28;20693;-86
2021/08/05 02:37:02;;;;;;;1.75;1.65;;;;;;;;;;4976960;28;20224;-86
2021/08/05 02:39:29;;;;;;;1.98;1.65;;;;;;;;;;4976393;28;20281;-86
2021/08/05 02:42:07;;;;;;;1.83;1.70;;;;;;;;;;4976825;28;20639;-86
2021/08/05 02:44:37;;;;;;;1.92;1.83;;;;;;;;;;4976816;28;20643;-86
2021/08/05 02:47:06;;;;;;;1.45;1.35;;;;;;;;;;4976550;28;20335;-85
2021/08/05 02:49:37;;;;;;;1.95;1.10;;;;;;;;;;4970696;28;20709;-86
2021/08/05 02:52:06;;;;;;;1.58;1.48;;;;;;;;;;4976558;28;20229;-86
2021/08/05 02:54:36;;;;;;;3.20;2.95;;;;;;;;;;4970685;28;20645;-86
2021/08/05 02:57:04;;;;;;;22.48;20.20;;;;;;;;;;4974188;28;20223;-86
2021/08/05 02:59:33;;;;;;;7.47;6.78;;;;;;;;;;4976288;28;20207;-86
2021/08/05 03:02:02;;;;;;;5.13;4.70;;;;;;;;;;4976300;28;20192;-86
2021/08/05 03:04:34;;;;;;;3.60;3.30;;;;;;;;;;4975529;28;20616;-86
2021/08/05 03:07:06;;;;;;;2.50;2.30;;;;;;;;;;4975836;28;20605;-86
2021/08/05 03:09:52;;;;;;;2.10;2.00;;;;;;;;;;4976181;28;20655;-86
2021/08/05 03:12:20;;;;;;;1.55;1.45;;;;;;;;;;4976306;28;20213;-86
2021/08/05 03:14:54;;;;;;;1.95;1.85;;;;;;;;;;4976077;28;20670;-86
2021/08/05 03:17:22;;;;;;;1.67;1.58;;;;;;;;;;4976368;28;20224;-86
2021/08/05 03:19:51;;;;;;;1.80;1.70;;;;;;;;;;4976208;28;20207;-86
2021/08/05 03:22:22;;;;;;;2.00;1.90;;;;;;;;;;4976280;28;20185;-86
2021/08/05 03:24:50;;;;;;;2.03;1.90;;;;;;;;;;4976232;28;20192;-87
2021/08/05 03:27:17;;;;;;;2.05;1.85;;;;;;;;;;4976085;28;20232;-86
2021/08/05 03:29:45;;;;;;;1.77;1.67;;;;;;;;;;4975619;28;20211;-86
2021/08/05 03:32:12;;;;;;;1.80;1.70;;;;;;;;;;4975161;28;20228;-85
2021/08/05 03:34:40;;;;;;;1.52;1.42;;;;;;;;;;4975641;28;20199;-85
2021/08/05 03:37:07;;;;;;;1.80;1.70;;;;;;;;;;4975969;28;20235;-86
2021/08/05 03:39:37;;;;;;;1.30;1.20;;;;;;;;;;4975905;28;20192;-86
2021/08/05 03:42:04;;;;;;;1.40;1.30;;;;;;;;;;4975614;28;20703;-86
2021/08/05 03:44:39;;;;;;;1.00;1.00;;;;;;;;;;4975783;28;20207;-86
2021/08/05 03:47:06;;;;;;;1.08;1.08;;;;;;;;;;4975699;28;20224;-86
2021/08/05 03:49:34;;;;;;;1.08;1.08;;;;;;;;;;4975727;28;20191;-86
2021/08/05 03:52:10;;;;;;;1.60;1.50;;;;;;;;;;4975348;28;20667;-85
2021/08/05 03:54:41;;;;;;;2.28;2.13;;;;;;;;;;4975646;28;20252;-86
2021/08/05 03:57:10;;;;;;;1.80;1.70;;;;;;;;;;4975272;28;20212;-86
2021/08/05 03:59:38;;;;;;;1.63;1.52;;;;;;;;;;4974665;28;20208;-86
2021/08/05 04:02:11;;;;;;;2.17;1.33;;;;;;;;;;4975433;28;20199;-86
2021/08/05 04:04:38;;;;;;;1.30;1.27;;;;;;;;;;4968957;28;20201;-86
2021/08/05 04:07:11;;;;;;;2.00;1.63;;;;;;;;;;4955390;29;20221;-86
2021/08/05 04:09:41;;;;;;;1.55;1.45;;;;;;;;;;4955763;29;20201;-86
2021/08/05 04:12:13;;;;;;;1.98;1.88;;;;;;;;;;4955708;29;20197;-87
2021/08/05 04:14:40;;;;;;;2.17;1.70;;;;;;;;;;4955856;29;20177;-87
2021/08/05 04:17:10;;;;;;;1.80;1.70;;;;;;;;;;4955963;29;20751;-86
2021/08/05 04:19:37;;;;;;;1.65;1.55;;;;;;;;;;4954884;28;20204;-86
2021/08/05 04:22:07;;;;;;;1.77;1.67;;;;;;;;;;4956008;29;20193;-86
2021/08/05 04:24:35;;;;;;;1.70;1.60;;;;;;;;;;4955490;29;20320;-86
2021/08/05 04:27:05;;;;;;;3.00;2.80;;;;;;;;;;4962506;28;20246;-85
2021/08/05 04:29:39;;;;;;;1.70;1.60;;;;;;;;;;4994368;28;20275;-86
2021/08/05 04:32:08;;;;;;;1.88;1.77;;;;;;;;;;4994163;28;20560;-86
2021/08/05 04:34:41;;;;;;;1.50;1.40;;;;;;;;;;4993941;28;20223;-87
2021/08/05 04:37:09;;;;;;;1.70;1.60;;;;;;;;;;4994386;28;20227;-86
2021/08/05 04:39:39;;;;;;;1.80;1.70;;;;;;;;;;4994142;28;20200;-86
2021/08/05 04:42:28;;;;;;;1.65;1.50;;;;;;;;;;4994340;28;20223;-86
2021/08/05 04:44:55;;;;;;;2.03;1.92;;;;;;;;;;4993702;28;20200;-86
2021/08/05 04:47:31;;;;;;;3.10;2.90;;;;;;;;;;4993159;28;20228;-86
2021/08/05 04:50:08;;;;;;;2.22;2.03;;;;;;;;;;4996593;28;20646;-87
2021/08/05 04:52:37;;;;;;;2.15;2.05;;;;;;;;;;4992918;28;20685;-86
2021/08/05 04:55:05;;;;;;;2.28;2.08;;;;;;;;;;4993617;28;20211;-86
2021/08/05 04:57:35;;;;;;;2.15;2.05;;;;;;;;;;4994118;28;20741;-86
2021/08/05 05:00:11;;;;;;;2.13;1.92;;;;;;;;;;4991904;28;20216;-86
2021/08/05 05:02:38;;;;;;;2.13;1.98;;;;;;;;;;4993382;28;20214;-87
2021/08/05 05:05:08;;;;;;;1.70;1.60;;;;;;;;;;4993961;28;20180;-87
2021/08/05 05:07:38;;;;;;;2.65;2.45;;;;;;;;;;4993485;28;20227;-87
2021/08/05 05:10:11;;;;;;;2.65;2.45;;;;;;;;;;4993463;28;20199;-88
2021/08/05 05:13:12;;;;;;;2.78;2.58;;;;;;;;;;4993286;28;20200;-88
2021/08/05 05:16:00;;;;;;;1.92;1.83;;;;;;;;;;4993846;28;20234;-87
2021/08/05 05:18:29;;;;;;;2.50;2.00;;;;;;;;;;4993738;28;20194;-88
2021/08/05 05:21:04;;;;;;;2.33;2.13;;;;;;;;;;4993350;28;20662;-87
2021/08/05 05:23:33;;;;;;;1.65;1.55;;;;;;;;;;4992808;28;20210;-89
2021/08/05 05:26:01;;;;;;;3.00;2.80;;;;;;;;;;4993521;28;20235;-89
2021/08/05 05:28:32;;;;;;;3.25;3.05;;;;;;;;;;4977405;28;20232;-88
2021/08/05 05:31:02;;;;;;;2.42;2.22;;;;;;;;;;4974171;28;20192;-89
2021/08/05 05:33:51;;;;;;;1.70;1.60;;;;;;;;;;4974007;28;20216;-89
2021/08/05 05:36:54;;;;;;;1.63;1.52;;;;;;;;;;4973646;28;20227;-89
2021/08/05 05:40:34;;;;;;;1.38;1.30;;;;;;;;;;4973336;28;20207;-89
2021/08/05 05:43:26;;;;;;;3.60;3.40;;;;;;;;;;4973978;28;20188;-89
2021/08/05 05:46:17;;;;;;;2.35;2.25;;;;;;;;;;4973809;28;20610;-88
2021/08/05 05:48:55;;;;;;;1.92;1.75;;;;;;;;;;4973758;28;20185;-88
2021/08/05 05:51:36;;;;;;;1.23;1.23;;;;;;;;;;4973969;28;20184;-89
2021/08/05 05:54:15;;;;;;;1.80;1.70;;;;;;;;;;4972907;28;20220;-89
2021/08/05 05:56:50;;;;;;;1.67;1.58;;;;;;;;;;4973755;28;20218;-88
2021/08/05 05:59:23;;;;;;;1.85;1.75;;;;;;;;;;4973836;28;20203;-89
2021/08/05 06:01:54;;;;;;;2.05;1.90;;;;;;;;;;4973653;28;20602;-89
2021/08/05 06:04:27;;;;;;;1.73;1.63;;;;;;;;;;4973482;28;20612;-88
2021/08/05 06:07:18;;;;;;;1.60;1.50;;;;;;;;;;4973497;28;20707;-89
2021/08/05 06:09:56;;;;;;;1.63;1.52;;;;;;;;;;4973488;28;20723;-89
2021/08/05 06:12:24;;;;;;;2.28;2.10;;;;;;;;;;4973686;28;20193;-88
2021/08/05 06:15:01;;;;;;;1.90;1.80;;;;;;;;;;4973691;28;20208;-89
2021/08/05 06:18:00;;;;;;;1.83;1.73;;;;;;;;;;4973710;28;20232;-88
2021/08/05 06:20:28;;;;;;;1.80;1.70;;;;;;;;;;4954516;29;20193;-88
2021/08/05 06:22:56;;;;;;;1.90;1.80;;;;;;;;;;4953592;29;20208;-89
2021/08/05 06:26:00;;;;;;;2.65;2.45;;;;;;;;;;4954259;29;20272;-89
2021/08/05 06:29:09;;;;;;;4.13;3.83;;;;;;;;;;4953760;28;20248;-89
2021/08/05 06:32:08;;;;;;;4.30;3.40;;;;;;;;;;4954061;29;20205;-89
2021/08/05 06:34:38;;;;;;;2.47;2.28;;;;;;;;;;4954319;29;20236;-88
2021/08/05 06:37:08;;;;;;;2.22;2.10;;;;;;;;;;4954292;29;20229;-89
2021/08/05 06:39:55;;;;;;;2.83;2.50;;;;;;;;;;4954164;29;20185;-88
2021/08/05 06:42:36;;;;;;;2.38;2.28;;;;;;;;;;4955971;28;20582;-89
2021/08/05 06:45:12;;;;;;;3.47;3.15;;;;;;;;;;4957534;29;20544;-89
2021/08/05 06:47:49;;;;;;;3.47;3.28;;;;;;;;;;4968008;28;20589;-88
2021/08/05 06:50:27;;;;;;;4.88;3.65;;;;;;;;;;4977350;28;20208;-88
2021/08/05 06:52:56;;;;;;;4.30;4.00;;;;;;;;;;4976255;28;20359;-89
2021/08/05 06:55:55;;;;;;;4.03;3.72;;;;;;;;;;4976628;28;20212;-88
2021/08/05 06:58:24;;;;;;;2.97;2.42;;;;;;;;;;4976430;28;20189;-89
2021/08/05 07:01:00;;;;;;;3.25;2.95;;;;;;;;;;4976687;28;20185;-89
2021/08/05 07:03:28;;;;;;;2.05;1.95;;;;;;;;;;4976752;28;20184;-89
2021/08/05 07:06:04;;;;;;;2.30;2.20;;;;;;;;;;4976203;28;20282;-87
2021/08/05 07:08:35;;;;;;;3.35;3.15;;;;;;;;;;4976488;28;20199;-87
2021/08/05 07:11:04;;;;;;;2.95;2.70;;;;;;;;;;4976496;28;20185;-86
2021/08/05 07:13:54;;;;;;;4.10;3.70;;;;;;;;;;4977680;28;20690;-90
2021/08/05 07:16:23;;;;;;;3.28;3.08;;;;;;;;;;4977083;28;20699;-88
2021/08/05 07:18:55;;;;;;;3.92;3.50;;;;;;;;;;4976055;28;20555;-90
2021/08/05 07:21:25;;;;;;;3.47;3.17;;;;;;;;;;4975602;28;20181;-87
2021/08/05 07:23:54;;;;;;;3.10;2.75;;;;;;;;;;4975894;28;20192;-88
2021/08/05 07:26:22;;;;;;;3.75;3.45;;;;;;;;;;4975558;28;20893;-87
2021/08/05 07:28:50;;;;;;;4.18;3.67;;;;;;;;;;4975494;28;20232;-88
2021/08/05 07:31:18;;;;;;;2.78;2.58;;;;;;;;;;4976022;28;20536;-88
2021/08/05 07:33:48;;;;;;;3.55;3.25;;;;;;;;;;4975100;28;20199;-88
2021/08/05 07:36:16;;;;;;;3.65;3.35;;;;;;;;;;4973493;28;20224;-88
2021/08/05 07:38:47;;;;;;;3.50;3.30;;;;;;;;;;4974861;28;20268;-87
2021/08/05 07:41:15;;;;;;;2.45;2.25;;;;;;;;;;4974420;28;20252;-87
2021/08/05 07:43:43;;;;;;;3.45;3.15;;;;;;;;;;4975258;28;20303;-88
2021/08/05 07:46:12;;;;;;;4.88;3.08;;;;;;;;;;4975379;28;20224;-87
2021/08/05 07:48:39;;;;;;;2.80;2.60;;;;;;;;;;4975516;28;20569;-87
2021/08/05 07:51:08;;;;;;;3.95;3.65;;;;;;;;;;4975333;28;20189;-88
2021/08/05 07:53:39;;;;;;;3.80;3.50;;;;;;;;;;4974587;28;20191;-87
2021/08/05 07:56:13;;;;;;;2.80;2.60;;;;;;;;;;4975215;28;20229;-88
2021/08/05 07:58:46;;;;;;;3.17;2.72;;;;;;;;;;4956106;29;20181;-88
2021/08/05 08:01:19;;;;;;;3.20;2.45;;;;;;;;;;4970886;28;20196;-87
2021/08/05 08:03:47;;;;;;;2.78;2.58;;;;;;;;;;4975529;28;20200;-87
2021/08/05 08:06:14;;;;;;;3.15;2.95;;;;;;;;;;4975247;28;20691;-87
2021/08/05 08:08:43;;;;;;;3.53;3.25;;;;;;;;;;4975355;28;20246;-88
2021/08/05 08:11:14;;;;;;;2.88;2.67;;;;;;;;;;4974654;28;20822;-88
2021/08/05 08:13:41;;;;;;;2.65;2.45;;;;;;;;;;4989964;28;20262;-88
2021/08/05 08:16:10;;;;;;;2.22;2.13;;;;;;;;;;4994096;28;20816;-87
2021/08/05 08:18:38;;;;;;;2.55;2.35;;;;;;;;;;4984204;28;20200;-89
2021/08/05 08:21:06;;;;;;;2.78;2.58;;;;;;;;;;4974802;28;20279;-88
2021/08/05 08:23:34;;;;;;;3.28;2.97;;;;;;;;;;4974972;28;20210;-88
2021/08/05 08:26:03;;;;;;;2.95;2.75;;;;;;;;;;4974576;28;20235;-88
2021/08/05 08:28:33;;;;;;;3.53;3.30;;;;;;;;;;4974419;28;20244;-87
2021/08/05 08:31:08;;;;;;;2.80;2.60;;;;;;;;;;4974945;28;20200;-88
2021/08/05 08:33:36;;;;;;;3.67;3.38;;;;;;;;;;4974694;28;20215;-87
2021/08/05 08:36:05;;;;;;;3.92;3.53;;;;;;;;;;4974486;28;20407;-88
2021/08/05 08:38:41;;;;;;;2.72;2.53;;;;;;;;;;4974524;28;20635;-88
2021/08/05 08:41:12;;;;;;;2.85;2.65;;;;;;;;;;4974723;28;20188;-88
2021/08/05 08:43:41;;;;;;;2.50;2.30;;;;;;;;;;4974339;28;20243;-88
2021/08/05 08:46:10;;;;;;;3.25;2.95;;;;;;;;;;4974559;28;20220;-88
2021/08/05 08:48:41;;;;;;;3.75;3.45;;;;;;;;;;4974501;28;20255;-88
2021/08/05 08:51:09;;;;;;;1.92;1.83;;;;;;;;;;4974445;28;20207;-88
2021/08/05 08:53:39;;;;;;;2.85;2.65;;;;;;;;;;4973495;28;20180;-88
2021/08/05 08:56:08;;;;;;;5.05;4.65;;;;;;;;;;4974232;28;20232;-88
2021/08/05 08:58:36;;;;;;;3.78;3.45;;;;;;;;;;4974414;28;20196;-88
2021/08/05 09:01:05;;;;;;;2.97;2.78;;;;;;;;;;4973980;28;20193;-87
2021/08/05 09:03:35;;;;;;;2.88;2.67;;;;;;;;;;4962048;28;20214;-88
2021/08/05 09:06:05;;;;;;;3.25;3.05;;;;;;;;;;4976116;28;20247;-88
2021/08/05 09:08:39;;;;;;;3.05;2.85;;;;;;;;;;4974210;28;20188;-87
2021/08/05 09:11:07;;;;;;;3.92;3.50;;;;;;;;;;4973543;28;20658;-88
2021/08/05 09:13:36;;;;;;;3.30;3.10;;;;;;;;;;4973644;28;20192;-87
2021/08/05 09:16:22;;;;;;;4.15;3.85;;;;;;;;;;4973780;28;20709;-88
2021/08/05 09:18:49;;;;;;;4.40;4.10;;;;;;;;;;4974055;28;20199;-87
2021/08/05 09:21:21;;;;;;;3.92;3.63;;;;;;;;;;4973840;28;20211;-89
2021/08/05 09:23:59;;;;;;;5.00;4.60;;;;;;;;;;4973791;28;20215;-87
2021/08/05 09:26:37;;;;;;;5.28;4.88;;;;;;;;;;4973649;28;20586;-87
2021/08/05 09:29:11;;;;;;;4.72;4.43;;;;;;;;;;4973884;28;20216;-87
2021/08/05 09:31:44;;;;;;;4.07;3.78;;;;;;;;;;4973341;28;20211;-88
2021/08/05 09:34:14;;;;;;;6.75;6.25;;;;;;;;;;4973260;28;20193;-87
2021/08/05 09:36:44;;;;;;;5.82;5.32;;;;;;;;;;4973419;28;21038;-88
2021/08/05 09:39:21;;;;;;;5.47;5.07;;;;;;;;;;4973583;28;20192;-88
2021/08/05 09:41:58;;;;;;;4.32;4.03;;;;;;;;;;4973664;28;20184;-87
2021/08/05 09:44:28;;;;;;;4.40;4.10;;;;;;;;;;4973810;28;20192;-87
2021/08/05 09:47:07;;;;;;;3.53;3.33;;;;;;;;;;4973622;28;20224;-89
2021/08/05 09:49:36;;;;;;;3.88;3.63;;;;;;;;;;4973651;28;20196;-88
2021/08/05 09:52:07;;;;;;;4.60;4.20;;;;;;;;;;4973556;28;20181;-87
2021/08/05 09:54:43;;;;;;;3.60;3.30;;;;;;;;;;4973566;28;20200;-87
2021/08/05 09:57:13;;;;;;;4.15;3.85;;;;;;;;;;4973532;28;20242;-88
2021/08/05 09:59:55;;;;;;;3.33;3.13;;;;;;;;;;4975723;28;20201;-89
2021/08/05 10:02:26;;;;;;;4.03;3.72;;;;;;;;;;4972185;28;20188;-88
2021/08/05 10:04:55;;;;;;;4.07;3.67;;;;;;;;;;4973424;28;20203;-87
2021/08/05 10:07:22;;;;;;;3.97;3.63;;;;;;;;;;4972771;28;20247;-88
2021/08/05 10:09:59;;;;;;;3.55;3.35;;;;;;;;;;4973293;28;20195;-88
2021/08/05 10:12:31;;;;;;;3.58;3.28;;;;;;;;;;4973473;28;20251;-88
2021/08/05 10:15:12;;;;;;;3.90;3.60;;;;;;;;;;4973430;28;20204;-88
2021/08/05 10:17:42;;;;;;;4.10;3.80;;;;;;;;;;4976001;28;20224;-87
2021/08/05 10:20:12;;;;;;;3.35;3.05;;;;;;;;;;4976930;28;20203;-88
2021/08/05 10:22:41;;;;;;;3.70;3.50;;;;;;;;;;4976278;28;20189;-88
2021/08/05 10:25:11;;;;;;;4.30;3.80;;;;;;;;;;4976973;28;20207;-88
2021/08/05 10:27:39;;;;;;;3.30;3.05;;;;;;;;;;4976695;28;20228;-88
2021/08/05 10:30:12;;;;;;;3.22;3.03;;;;;;;;;;4976806;28;20208;-89
2021/08/05 10:32:42;;;;;;;4.05;3.75;;;;;;;;;;4976934;28;20193;-88
2021/08/05 10:35:12;;;;;;;3.20;3.00;;;;;;;;;;4977050;28;20193;-88
2021/08/05 10:37:41;;;;;;;3.00;2.80;;;;;;;;;;4976853;28;20597;-88
2021/08/05 10:40:12;;;;;;;3.10;2.90;;;;;;;;;;4976865;28;20184;-87
2021/08/05 10:42:43;;;;;;;4.72;3.42;;;;;;;;;;4976677;28;20543;-88
2021/08/05 10:45:15;;;;;;;4.15;3.85;;;;;;;;;;4976868;28;20185;-89
2021/08/05 10:47:47;;;;;;;3.25;2.95;;;;;;;;;;4976518;28;20212;-88
2021/08/05 10:50:18;;;;;;;3.67;3.38;;;;;;;;;;4976383;28;20260;-88
2021/08/05 10:52:48;;;;;;;3.63;3.33;;;;;;;;;;4976365;28;20192;-87
2021/08/05 10:55:31;;;;;;;3.90;3.63;;;;;;;;;;4974761;28;20248;-88
2021/08/05 10:58:18;;;;;;;3.65;3.42;;;;;;;;;;4961698;28;20223;-87
2021/08/05 11:01:06;;;;;;;3.60;3.30;;;;;;;;;;4957072;29;20196;-87
2021/08/05 11:03:59;;;;;;;3.08;2.88;;;;;;;;;;4973126;28;20200;-87
2021/08/05 11:06:32;;;;;;;2.88;2.67;;;;;;;;;;4975624;28;20221;-87
2021/08/05 11:09:30;;;;;;;2.40;2.30;;;;;;;;;;4977175;28;20239;-88
2021/08/05 11:11:58;;;;;;;2.22;2.10;;;;;;;;;;4956956;29;20240;-87
2021/08/05 11:14:46;;;;;;;2.75;2.60;;;;;;;;;;4964529;28;20647;-88
2021/08/05 11:17:14;;;;;;;2.30;2.20;;;;;;;;;;4971065;28;20228;-87
2021/08/05 11:19:42;;;;;;;2.33;2.13;;;;;;;;;;4975328;28;20215;-88
2021/08/05 11:22:51;;;;;;;2.00;1.90;;;;;;;;;;4975743;28;20566;-88
2021/08/05 11:25:21;;;;;;;1.80;1.70;;;;;;;;;;4971233;28;20258;-88
2021/08/05 11:28:28;;;;;;;2.00;1.90;;;;;;;;;;4975393;28;20237;-88
2021/08/05 11:30:58;;;;;;;1.75;1.65;;;;;;;;;;4953746;28;20207;-87
2021/08/05 11:33:53;;;;;;;2.28;2.17;;;;;;;;;;4975844;28;20197;-88
2021/08/05 11:36:46;;;;;;;2.38;1.70;;;;;;;;;;4975527;28;20220;-87
2021/08/05 11:39:29;;;;;;;2.13;2.03;;;;;;;;;;4975458;28;20658;-89
2021/08/05 11:42:04;;;;;;;2.10;2.00;;;;;;;;;;4975765;28;20188;-90
2021/08/05 11:44:43;;;;;;;2.13;1.70;;;;;;;;;;4973816;28;20206;-90
2021/08/05 11:47:42;;;;;;;1.95;1.85;;;;;;;;;;4975658;28;20263;-90
2021/08/05 11:50:19;;;;;;;1.80;1.70;;;;;;;;;;4976022;28;20184;-89
2021/08/05 11:52:50;;;;;;;1.35;1.35;;;;;;;;;;4975504;28;20214;-89
2021/08/05 11:55:20;;;;;;;1.40;1.40;;;;;;;;;;4975166;28;20555;-87
2021/08/05 11:57:49;;;;;;;1.15;1.15;;;;;;;;;;4975462;28;20216;-88
2021/08/05 12:00:20;;;;;;;1.67;1.58;;;;;;;;;;4975198;28;20195;-89
2021/08/05 12:02:50;;;;;;;1.23;1.23;;;;;;;;;;4972444;28;20188;-87
2021/08/05 12:05:21;;;;;;;1.77;1.67;;;;;;;;;;4974864;28;20201;-90
2021/08/05 12:07:51;;;;;;;1.60;1.50;;;;;;;;;;4975170;28;20199;-88
2021/08/05 12:10:24;;;;;;;1.80;1.70;;;;;;;;;;4971876;28;20209;-90
2021/08/05 12:12:55;;;;;;;2.10;2.00;;;;;;;;;;4974610;28;20189;-88
2021/08/05 12:15:29;;;;;;;1.95;1.85;;;;;;;;;;4974764;28;20202;-88
2021/08/05 12:18:00;;;;;;;2.25;2.05;;;;;;;;;;4975094;28;20231;-89
2021/08/05 12:20:34;;;;;;;2.10;2.00;;;;;;;;;;4974877;28;20193;-87
2021/08/05 12:23:08;;;;;;;1.92;1.83;;;;;;;;;;4974632;28;20200;-89
2021/08/05 12:25:42;;;;;;;1.80;1.70;;;;;;;;;;4972921;28;20306;-89
2021/08/05 12:28:13;;;;;;;1.65;1.58;;;;;;;;;;4974315;28;20243;-88
2021/08/05 12:30:47;;;;;;;2.08;1.98;;;;;;;;;;4974459;28;20193;-87
2021/08/05 12:33:22;;;;;;;2.30;2.20;;;;;;;;;;4974247;28;20203;-88
2021/08/05 12:36:07;;;;;;;3.10;2.30;;;;;;;;;;4974440;28;20227;-88
2021/08/05 12:38:44;;;;;;;2.15;2.05;;;;;;;;;;4974241;28;20212;-88
2021/08/05 12:41:16;;;;;;;2.00;1.90;;;;;;;;;;4974278;28;20192;-88
2021/08/05 12:43:45;;;;;;;2.42;2.33;;;;;;;;;;4973835;28;20706;-89
2021/08/05 12:46:13;;;;;;;2.20;2.10;;;;;;;;;;4973856;28;20216;-87
2021/08/05 12:48:42;;;;;;;2.85;2.65;;;;;;;;;;4974084;28;20599;-88
2021/08/05 12:51:15;;;;;;;2.15;2.05;;;;;;;;;;4974194;28;20275;-88
2021/08/05 12:53:44;;;;;;;3.22;3.03;;;;;;;;;;4964679;28;20201;-87
2021/08/05 12:56:12;;;;;;;2.90;2.70;;;;;;;;;;4954717;29;20228;-86
2021/08/05 12:58:40;;;;;;;3.50;3.30;;;;;;;;;;4954819;29;20213;-89
2021/08/05 13:01:16;;;;;;;2.78;2.67;;;;;;;;;;4969688;28;20280;-87
2021/08/05 13:03:50;;;;;;;2.92;2.72;;;;;;;;;;4957572;28;20215;-86
2021/08/05 13:06:21;;;;;;;3.10;2.90;;;;;;;;;;4968048;28;20217;-86
2021/08/05 13:08:52;;;;;;;2.47;2.38;;;;;;;;;;4973961;28;20188;-87
2021/08/05 13:11:37;;;;;;;2.30;2.20;;;;;;;;;;4972778;28;20213;-90
2021/08/05 13:14:08;;;;;;;2.72;2.50;;;;;;;;;;4973358;28;20852;-87
2021/08/05 13:16:40;;;;;;;2.47;2.30;;;;;;;;;;4972980;28;20252;-88
2021/08/05 13:19:12;;;;;;;1.73;1.63;;;;;;;;;;4973843;28;20204;-88
2021/08/05 13:21:56;;;;;;;1.75;1.65;;;;;;;;;;4973661;28;20200;-88
2021/08/05 13:24:29;;;;;;;1.58;1.48;;;;;;;;;;4972224;28;20204;-87
2021/08/05 13:26:59;;;;;;;1.48;1.38;;;;;;;;;;4984610;28;20278;-87
2021/08/05 13:29:52;;;;;;;1.67;1.58;;;;;;;;;;4992848;28;20200;-89
2021/08/05 13:32:21;;;;;;;1.50;1.40;;;;;;;;;;4976468;28;20211;-88
2021/08/05 13:35:07;;;;;;;1.30;1.30;;;;;;;;;;4973496;28;20206;-87
2021/08/05 13:37:37;;;;;;;1.73;1.63;;;;;;;;;;4973382;28;20418;-90
2021/08/05 13:40:08;;;;;;;1.60;1.50;;;;;;;;;;4973611;28;20411;-88
2021/08/05 13:42:38;;;;;;;1.92;1.83;;;;;;;;;;4972933;28;20201;-87
2021/08/05 13:45:08;;;;;;;1.90;1.80;;;;;;;;;;4973204;28;20207;-87
2021/08/05 13:47:36;;;;;;;1.83;1.73;;;;;;;;;;4955315;28;20221;-87
2021/08/05 13:50:18;;;;;;;2.03;1.92;;;;;;;;;;4973479;28;20204;-88
2021/08/05 13:52:46;;;;;;;2.13;2.03;;;;;;;;;;4976117;28;20647;-89
2021/08/05 13:55:18;;;;;;;1.73;1.63;;;;;;;;;;4977064;28;20710;-89
2021/08/05 13:57:45;;;;;;;1.45;1.38;;;;;;;;;;4977160;28;20230;-86
2021/08/05 14:00:14;;;;;;;1.45;1.40;;;;;;;;;;4976998;28;20231;-89
2021/08/05 14:02:43;;;;;;;1.85;1.75;;;;;;;;;;4976823;28;20185;-87
2021/08/05 14:05:12;;;;;;;1.55;1.45;;;;;;;;;;4977162;28;20177;-88
2021/08/05 14:07:41;;;;;;;1.30;1.30;;;;;;;;;;4977197;28;20228;-87
2021/08/05 14:10:10;;;;;;;2.15;1.70;;;;;;;;;;4977118;28;20195;-87
2021/08/05 14:12:40;;;;;;;2.83;2.63;;;;;;;;;;4976836;28;20188;-85
2021/08/05 14:15:10;;;;;;;2.38;2.28;;;;;;;;;;4977654;28;20215;-85
2021/08/05 14:17:37;;;;;;;2.13;2.03;;;;;;;;;;4977332;28;20981;-85
2021/08/05 14:20:07;;;;;;;1.92;1.83;;;;;;;;;;4976999;28;20231;-86
2021/08/05 14:22:35;;;;;;;1.40;1.38;;;;;;;;;;4976773;28;20252;-86
2021/08/05 14:25:02;;;;;;;1.30;1.27;;;;;;;;;;4976696;28;20258;-86
2021/08/05 14:27:30;;;;;;;2.13;1.90;;;;;;;;;;4982975;28;20232;-86
2021/08/05 14:29:59;;;;;;;1.52;1.42;;;;;;;;;;4996858;28;20633;-86
2021/08/05 14:32:27;;;;;;;1.60;1.50;;;;;;;;;;4995662;28;20196;-86
2021/08/05 14:34:54;;;;;;;1.23;1.23;;;;;;;;;;4996596;28;20226;-87
2021/08/05 14:37:22;;;;;;;1.52;1.42;;;;;;;;;;4986919;28;20706;-86
2021/08/05 14:39:49;;;;;;;1.05;1.05;;;;;;;;;;4992316;28;20239;-86
2021/08/05 14:42:17;;;;;;;1.40;1.30;;;;;;;;;;4994662;28;20208;-87
2021/08/05 14:44:45;;;;;;;2.28;2.17;;;;;;;;;;4995037;28;20215;-87
2021/08/05 14:47:13;;;;;;;1.88;1.77;;;;;;;;;;4995106;28;20224;-87
2021/08/05 14:49:43;;;;;;;2.00;1.90;;;;;;;;;;4994572;28;20279;-87
2021/08/05 14:52:12;;;;;;;1.60;1.50;;;;;;;;;;4997208;28;20591;-88
2021/08/05 14:54:40;;;;;;;1.40;1.40;;;;;;;;;;4995701;28;20283;-88
2021/08/05 14:57:07;;;;;;;1.88;1.77;;;;;;;;;;4992401;28;20231;-88
2021/08/05 14:59:35;;;;;;;1.83;1.73;;;;;;;;;;4996379;28;20219;-88
2021/08/05 15:02:03;;;;;;;2.03;1.92;;;;;;;;;;4995086;28;20204;-89
2021/08/05 15:04:32;;;;;;;1.17;1.17;;;;;;;;;;4995317;28;20196;-88
2021/08/05 15:06:59;;;;;;;1.90;1.80;;;;;;;;;;4995494;28;20238;-88
2021/08/05 15:09:30;;;;;;;1.38;1.30;;;;;;;;;;4995355;28;20202;-89
2021/08/05 15:11:57;;;;;;;1.95;1.85;;;;;;;;;;4986830;28;20208;-86
2021/08/05 15:14:25;;;;;;;1.80;1.70;;;;;;;;;;4993854;28;20841;-87
2021/08/05 15:16:53;;;;;;;1.70;1.60;;;;;;;;;;4995324;28;20326;-89